createdAt,value
2023-01-12T00:02:00.007Z,100111.50
2023-01-12T00:04:27.073Z,100107.84
2023-01-12T00:06:54.751Z,100113.16
2023-01-12T00:09:21.741Z,100117.50
2023-01-12T00:11:48.766Z,100107.56
2023-01-12T00:14:16.089Z,100103.91
2023-01-12T00:16:43.336Z,100102.91
2023-01-12T00:19:21.928Z,100097.41
2023-01-12T00:22:11.496Z,100114.22
2023-01-12T00:24:43.933Z,100116.69
2023-01-12T00:27:15.273Z,100111.22
2023-01-12T00:29:42.694Z,100109.38
2023-01-12T00:32:18.825Z,100107.56
2023-01-12T00:34:45.886Z,100113.53
2023-01-12T00:37:13.201Z,100104.44
2023-01-12T00:39:45.812Z,100099.78
2023-01-12T00:42:34.202Z,100089.00
2023-01-12T00:45:19.495Z,100089.69
2023-01-12T00:47:46.454Z,100095.66
2023-01-12T00:50:14.321Z,100096.31
2023-01-12T00:52:41.253Z,100093.34
2023-01-12T00:55:08.874Z,100087.03
2023-01-12T00:57:36.188Z,100094.00
2023-01-12T01:00:03.932Z,100085.03
2023-01-12T01:02:31.371Z,100080.38
2023-01-12T01:04:58.297Z,100099.66
2023-01-12T01:07:25.551Z,100092.34
2023-01-12T01:09:52.535Z,100087.03
2023-01-12T01:12:19.770Z,100094.69
2023-01-12T01:14:48.274Z,100095.34
2023-01-12T01:17:15.528Z,100096.00
2023-01-12T01:19:43.521Z,100091.34
2023-01-12T01:22:12.296Z,100091.19
2023-01-12T01:24:39.446Z,100098.97
2023-01-12T01:27:06.462Z,100102.28
2023-01-12T01:29:33.358Z,100109.25
2023-01-12T01:32:00.269Z,100113.44
2023-01-12T01:34:27.249Z,100101.81
2023-01-12T01:36:54.165Z,100104.28
2023-01-12T01:39:21.119Z,100110.25
2023-01-12T01:41:48.177Z,100114.44
2023-01-12T01:44:30.390Z,100106.28
2023-01-12T01:47:10.835Z,100112.25
2023-01-12T01:49:51.402Z,100108.47
2023-01-12T01:52:28.925Z,100112.59
2023-01-12T01:55:07.389Z,100110.59
2023-01-12T01:57:48.908Z,100100.47
2023-01-12T02:00:16.899Z,100093.66
2023-01-12T02:02:46.230Z,100102.28
2023-01-12T02:05:19.982Z,100093.00
2023-01-12T02:07:49.681Z,100089.16
2023-01-12T02:10:18.054Z,100085.31
2023-01-12T02:13:04.396Z,100090.31
2023-01-12T02:16:03.718Z,100085.66
2023-01-12T02:18:48.388Z,100076.53
2023-01-12T02:22:02.565Z,100063.06
2023-01-12T02:25:14.895Z,100054.91
2023-01-12T02:28:16.813Z,100042.28
2023-01-12T02:31:27.428Z,100040.31
2023-01-12T02:34:20.143Z,100045.44
2023-01-12T02:37:01.276Z,100039.13
2023-01-12T02:39:44.809Z,100029.31
2023-01-12T02:42:40.734Z,100030.13
2023-01-12T02:45:45.925Z,100028.31
2023-01-12T02:48:57.370Z,100019.50
2023-01-12T02:51:40.258Z,100039.78
2023-01-12T02:54:12.593Z,100043.25
2023-01-12T02:56:53.218Z,100036.13
2023-01-12T02:59:30.428Z,100033.47
2023-01-12T03:02:08.811Z,100034.44
2023-01-12T03:04:36.485Z,100026.31
2023-01-12T03:07:03.268Z,100027.16
2023-01-12T03:09:39.433Z,100024.31
2023-01-12T03:12:29.177Z,100025.16
2023-01-12T03:15:02.092Z,100026.16
2023-01-12T03:17:44.303Z,100021.66
2023-01-12T03:20:32.864Z,100026.16
2023-01-12T03:23:17.271Z,100022.50
2023-01-12T03:25:45.350Z,100025.16
2023-01-12T03:28:17.433Z,100025.78
2023-01-12T03:30:56.396Z,100030.09
2023-01-12T03:33:24.652Z,100027.44
2023-01-12T03:36:05.708Z,100025.78
2023-01-12T03:38:43.883Z,100020.47
2023-01-12T03:41:25.644Z,100014.84
2023-01-12T03:44:00.281Z,100013.19
2023-01-12T03:46:37.862Z,100006.84
2023-01-12T03:49:23.267Z,100004.19
2023-01-12T03:51:53.130Z,100009.53
2023-01-12T03:54:21.852Z,100004.03
2023-01-12T03:56:49.992Z,100005.84
2023-01-12T03:59:17.002Z,100004.03
2023-01-12T04:01:44.077Z,100011.00
2023-01-12T04:04:11.044Z,100000.53
2023-01-12T04:06:37.952Z,100009.97
2023-01-12T04:09:04.860Z,99995.88
2023-01-12T04:11:50.403Z,99988.72
2023-01-12T04:14:17.314Z,99989.53
2023-01-12T04:16:44.230Z,99985.03
2023-01-12T04:19:11.150Z,99982.25
2023-01-12T04:21:56.425Z,99985.88
2023-01-12T04:24:23.355Z,99989.53
2023-01-12T04:26:50.354Z,99986.56
2023-01-12T04:29:17.276Z,99984.06
2023-01-12T04:31:44.231Z,99989.22
2023-01-12T04:34:11.174Z,99985.88
2023-01-12T04:36:38.158Z,99984.22
2023-01-12T04:39:05.082Z,99984.22
2023-01-12T04:41:32.007Z,99987.72
2023-01-12T04:43:58.971Z,99976.44
2023-01-12T04:46:26.090Z,99970.09
2023-01-12T04:48:53.016Z,99978.06
2023-01-12T04:51:19.971Z,99965.78
2023-01-12T04:53:48.195Z,99973.59
2023-01-12T04:56:15.228Z,99977.25
2023-01-12T04:58:42.380Z,99984.41
2023-01-12T05:01:19.048Z,99969.28
2023-01-12T05:03:46.321Z,99962.47
2023-01-12T05:06:13.390Z,99963.31
2023-01-12T05:08:58.741Z,99962.47
2023-01-12T05:11:28.414Z,99963.31
2023-01-12T05:13:56.614Z,99944.53
2023-01-12T05:16:24.497Z,99949.84
2023-01-12T05:18:53.258Z,99944.53
2023-01-12T05:21:22.227Z,99947.00
2023-01-12T05:23:53.226Z,99943.34
2023-01-12T05:26:20.480Z,99937.38
2023-01-12T05:28:50.997Z,99950.47
2023-01-12T05:31:19.527Z,99947.69
2023-01-12T05:33:47.056Z,99937.88
2023-01-12T05:36:16.938Z,99924.38
2023-01-12T05:38:44.143Z,99932.38
2023-01-12T05:41:14.371Z,99915.59
2023-01-12T05:43:51.641Z,99926.03
2023-01-12T05:46:29.441Z,99915.22
2023-01-12T05:49:01.017Z,99910.91
2023-01-12T05:51:30.715Z,99904.44
2023-01-12T05:53:57.722Z,99901.78
2023-01-12T05:56:27.922Z,99903.56
2023-01-12T05:59:00.547Z,99900.09
2023-01-12T06:01:29.035Z,99900.09
2023-01-12T06:03:59.575Z,99891.13
2023-01-12T06:06:32.594Z,99886.66
2023-01-12T06:09:01.110Z,99880.50
2023-01-12T06:11:46.527Z,99873.50
2023-01-12T06:14:13.742Z,99884.13
2023-01-12T06:16:42.499Z,99872.53
2023-01-12T06:19:12.604Z,99861.88
2023-01-12T06:21:40.416Z,99872.53
2023-01-12T06:24:08.168Z,99876.00
2023-01-12T06:26:35.211Z,99875.19
2023-01-12T06:29:05.259Z,99869.19
2023-01-12T06:31:32.516Z,99875.34
2023-01-12T06:33:59.465Z,99877.16
2023-01-12T06:36:26.399Z,99877.16
2023-01-12T06:38:53.308Z,99878.81
2023-01-12T06:41:38.767Z,99882.50
2023-01-12T06:44:05.710Z,99876.16
2023-01-12T06:46:32.665Z,99870.19
2023-01-12T06:48:59.826Z,99873.50
2023-01-12T06:51:26.899Z,99871.84
2023-01-12T06:53:54.029Z,99869.88
2023-01-12T06:56:21.495Z,99869.88
2023-01-12T06:58:48.691Z,99870.69
2023-01-12T07:01:16.843Z,99869.88
2023-01-12T07:03:44.083Z,99881.31
2023-01-12T07:06:11.166Z,99868.84
2023-01-12T07:08:38.077Z,99871.50
2023-01-12T07:11:12.088Z,99863.53
2023-01-12T07:13:39.160Z,99873.16
2023-01-12T07:16:06.881Z,99874.00
2023-01-12T07:18:33.831Z,99875.63
2023-01-12T07:21:05.651Z,99878.13
2023-01-12T07:23:32.592Z,99872.78
2023-01-12T07:25:59.653Z,99885.09
2023-01-12T07:28:26.925Z,99877.78
2023-01-12T07:30:59.414Z,99882.09
2023-01-12T07:33:26.462Z,99881.25
2023-01-12T07:35:54.329Z,99886.59
2023-01-12T07:38:21.229Z,99886.41
2023-01-12T07:40:48.135Z,99874.75
2023-01-12T07:43:17.155Z,99873.41
2023-01-12T07:45:44.060Z,99875.06
2023-01-12T07:48:11.371Z,99882.84
2023-01-12T07:50:38.389Z,99869.72
2023-01-12T07:53:05.295Z,99866.69
2023-01-12T07:55:32.484Z,99867.56
2023-01-12T07:58:06.409Z,99876.38
2023-01-12T08:00:33.399Z,99881.69
2023-01-12T08:03:12.386Z,99876.19
2023-01-12T08:05:39.552Z,99877.66
2023-01-12T08:08:07.410Z,99866.19
2023-01-12T08:10:34.490Z,99884.63
2023-01-12T08:13:01.509Z,99865.16
2023-01-12T08:15:35.528Z,99870.34
2023-01-12T08:18:15.669Z,99871.97
2023-01-12T08:20:43.922Z,99859.31
2023-01-12T08:23:21.656Z,99851.53
2023-01-12T08:25:56.454Z,99870.78
2023-01-12T08:28:38.046Z,99860.34
2023-01-12T08:31:09.893Z,99864.47
2023-01-12T08:33:38.425Z,99873.25
2023-01-12T08:36:08.275Z,99857.31
2023-01-12T08:38:35.291Z,99853.50
2023-01-12T08:41:20.722Z,99862.31
2023-01-12T08:44:02.479Z,99875.63
2023-01-12T08:46:39.745Z,99861.13
2023-01-12T08:49:11.757Z,99877.09
2023-01-12T08:51:45.063Z,99864.41
2023-01-12T08:54:16.318Z,99882.88
2023-01-12T08:56:43.687Z,99874.72
2023-01-12T08:59:10.865Z,99875.16
2023-01-12T09:01:37.844Z,99872.50
2023-01-12T09:04:05.757Z,99889.16
2023-01-12T09:06:41.050Z,99890.44
2023-01-12T09:09:12.063Z,99878.13
2023-01-12T09:11:40.564Z,99878.75
2023-01-12T09:14:07.729Z,99867.13
2023-01-12T09:16:34.856Z,99868.13
2023-01-12T09:19:02.296Z,99861.81
2023-01-12T09:21:31.228Z,99846.81
2023-01-12T09:23:58.902Z,99853.00
2023-01-12T09:26:32.119Z,99840.53
2023-01-12T09:29:01.192Z,99840.53
2023-01-12T09:31:30.386Z,99830.50
2023-01-12T09:33:58.391Z,99859.78
2023-01-12T09:36:28.721Z,99868.41
2023-01-12T09:38:57.213Z,99854.09
2023-01-12T09:41:45.425Z,99859.41
2023-01-12T09:44:57.509Z,99860.25
2023-01-12T09:47:51.572Z,99858.44
2023-01-12T09:50:33.477Z,99869.72
2023-01-12T09:53:22.311Z,99858.06
2023-01-12T09:56:30.541Z,99856.03
2023-01-12T09:59:37.323Z,99848.72
2023-01-12T10:02:11.821Z,99848.53
2023-01-12T10:04:57.887Z,99852.66
2023-01-12T10:07:24.846Z,99840.00
2023-01-12T10:09:51.780Z,99843.50
2023-01-12T10:12:31.057Z,99849.44
2023-01-12T10:15:03.609Z,99849.06
2023-01-12T10:17:50.545Z,99845.59
2023-01-12T10:20:47.403Z,99868.53
2023-01-12T10:23:24.487Z,99855.88
2023-01-12T10:26:07.627Z,99851.19
2023-01-12T10:28:36.783Z,99854.50
2023-01-12T10:31:04.771Z,99865.16
2023-01-12T10:33:34.556Z,99852.50
2023-01-12T10:36:08.899Z,99867.66
2023-01-12T10:38:52.510Z,99840.66
2023-01-12T10:41:21.947Z,99838.81
2023-01-12T10:44:01.025Z,99817.31
2023-01-12T10:46:35.887Z,99847.28
2023-01-12T10:49:23.598Z,99857.53
2023-01-12T10:51:59.387Z,99839.53
2023-01-12T10:54:37.131Z,99852.69
2023-01-12T10:57:23.161Z,99833.84
2023-01-12T10:59:58.248Z,99828.97
2023-01-12T11:02:28.849Z,99835.97
2023-01-12T11:04:55.924Z,99841.56
2023-01-12T11:07:31.364Z,99824.41
2023-01-12T11:10:25.828Z,99844.31
2023-01-12T11:13:03.539Z,99831.66
2023-01-12T11:15:38.658Z,99822.63
2023-01-12T11:18:32.672Z,99838.25
2023-01-12T11:21:14.546Z,99847.72
2023-01-12T11:24:04.797Z,99846.91
2023-01-12T11:26:46.086Z,99839.72
2023-01-12T11:29:37.457Z,99820.06
2023-01-12T11:32:32.415Z,99828.25
2023-01-12T11:35:34.986Z,99807.75
2023-01-12T11:38:13.015Z,99824.72
2023-01-12T11:40:41.534Z,99813.09
2023-01-12T11:43:41.905Z,99804.25
2023-01-12T11:46:23.729Z,99801.59
2023-01-12T11:49:42.893Z,99790.09
2023-01-12T11:52:13.160Z,99781.09
2023-01-12T11:54:41.887Z,99787.41
2023-01-12T11:57:41.323Z,99773.13
2023-01-12T12:01:01.627Z,99767.78
2023-01-12T12:04:01.501Z,99743.97
2023-01-12T12:07:15.992Z,99761.63
2023-01-12T12:10:15.123Z,99744.44
2023-01-12T12:13:26.157Z,99761.25
2023-01-12T12:15:58.746Z,99758.38
2023-01-12T12:19:13.444Z,99764.53
2023-01-12T12:21:50.276Z,99757.38
2023-01-12T12:24:54.562Z,99757.38
2023-01-12T12:27:35.463Z,99749.38
2023-01-12T12:30:40.492Z,99756.38
2023-01-12T12:34:00.715Z,99757.56
2023-01-12T12:37:11.635Z,99757.38
2023-01-12T12:39:55.306Z,99737.06
2023-01-12T12:43:02.550Z,99730.72
2023-01-12T12:45:50.977Z,99732.56
2023-01-12T12:48:45.201Z,99717.38
2023-01-12T12:51:13.749Z,99727.06
2023-01-12T12:53:47.369Z,99732.19
2023-01-12T12:56:18.322Z,99733.03
2023-01-12T12:58:52.062Z,99717.84
2023-01-12T13:01:24.841Z,99727.69
2023-01-12T13:03:58.043Z,99724.00
2023-01-12T13:06:35.020Z,99729.13
2023-01-12T13:09:25.089Z,99732.63
2023-01-12T13:12:29.681Z,99738.78
2023-01-12T13:15:29.243Z,99728.94
2023-01-12T13:17:56.334Z,99727.31
2023-01-12T13:20:36.029Z,99743.94
2023-01-12T13:23:04.638Z,99725.28
2023-01-12T13:25:31.433Z,99726.13
2023-01-12T13:28:01.338Z,99726.13
2023-01-12T13:30:31.329Z,99732.28
2023-01-12T13:33:14.648Z,99732.28
2023-01-12T13:35:44.354Z,99716.28
2023-01-12T13:38:44.580Z,99712.59
2023-01-12T13:41:39.599Z,99712.59
2023-01-12T13:44:13.549Z,99722.44
2023-01-12T13:46:49.058Z,99708.28
2023-01-12T13:49:31.526Z,99719.38
2023-01-12T13:52:18.644Z,99711.56
2023-01-12T13:54:51.048Z,99711.38
2023-01-12T13:57:22.958Z,99714.88
2023-01-12T14:00:08.546Z,99734.34
2023-01-12T14:02:41.942Z,99708.50
2023-01-12T14:05:54.762Z,99707.88
2023-01-12T14:08:58.442Z,99728.19
2023-01-12T14:12:01.733Z,99713.84
2023-01-12T14:14:52.959Z,99704.03
2023-01-12T14:17:52.606Z,99719.56
2023-01-12T14:20:31.035Z,99716.91
2023-01-12T14:23:27.040Z,99715.06
2023-01-12T14:26:09.155Z,99708.91
2023-01-12T14:28:38.231Z,99713.41
2023-01-12T14:31:45.528Z,99711.78
2023-01-12T14:34:32.704Z,99710.94
2023-01-12T14:37:05.578Z,99713.78
2023-01-12T14:39:40.899Z,99708.66
2023-01-12T14:42:36.383Z,99709.66
2023-01-12T14:45:44.720Z,99699.81
2023-01-12T14:48:33.973Z,99697.34
2023-01-12T14:51:38.039Z,99692.03
2023-01-12T14:54:07.844Z,99699.41
2023-01-12T14:56:48.649Z,99701.25
2023-01-12T14:59:23.690Z,99702.06
2023-01-12T15:02:07.210Z,99689.56
2023-01-12T15:04:34.234Z,99701.25
2023-01-12T15:07:06.947Z,99697.75
2023-01-12T15:09:50.435Z,99696.72
2023-01-12T15:12:54.458Z,99700.22
2023-01-12T15:15:23.584Z,99697.34
2023-01-12T15:18:12.431Z,99702.69
2023-01-12T15:21:02.482Z,99699.00
2023-01-12T15:23:53.350Z,99693.66
2023-01-12T15:26:21.680Z,99689.16
2023-01-12T15:28:49.670Z,99696.34
2023-01-12T15:31:25.173Z,99696.97
2023-01-12T15:33:52.279Z,99675.66
2023-01-12T15:36:19.185Z,99680.00
2023-01-12T15:38:46.182Z,99684.28
2023-01-12T15:41:45.155Z,99669.94
2023-01-12T15:44:20.663Z,99668.09
2023-01-12T15:46:47.920Z,99666.25
2023-01-12T15:49:15.788Z,99672.41
2023-01-12T15:51:47.613Z,99666.25
2023-01-12T15:54:17.867Z,99665.88
2023-01-12T15:56:45.377Z,99660.53
2023-01-12T15:59:12.383Z,99666.72
2023-01-12T16:01:47.612Z,99671.19
2023-01-12T16:07:10.591Z,99656.88
2023-01-12T16:09:37.536Z,99696.66
2023-01-12T16:12:04.948Z,99648.69
2023-01-12T16:14:31.871Z,99649.50
2023-01-12T16:16:58.895Z,99641.50
2023-01-12T16:19:26.251Z,99654.03
2023-01-12T16:21:54.965Z,99665.50
2023-01-12T16:24:26.439Z,99660.16
2023-01-12T16:26:53.731Z,99663.66
2023-01-12T16:29:21.987Z,99670.84
2023-01-12T16:31:49.211Z,99678.19
2023-01-12T16:34:18.303Z,99669.19
2023-01-12T16:36:45.553Z,99674.53
2023-01-12T16:39:13.166Z,99684.16
2023-01-12T16:41:40.232Z,99686.81
2023-01-12T16:44:07.146Z,99664.06
2023-01-12T16:46:34.087Z,99670.38
2023-01-12T16:49:04.026Z,99666.06
2023-01-12T16:51:32.971Z,99659.09
2023-01-12T16:54:02.570Z,99659.28
2023-01-12T16:56:29.639Z,99653.97
2023-01-12T16:58:57.711Z,99659.28
2023-01-12T17:01:26.028Z,99651.28
2023-01-12T17:03:57.587Z,99666.47
2023-01-12T17:06:26.986Z,99677.31
2023-01-12T17:08:54.855Z,99655.81
2023-01-12T17:11:27.407Z,99649.66
2023-01-12T17:13:56.606Z,99654.78
2023-01-12T17:16:28.048Z,99660.09
2023-01-12T17:18:55.176Z,99648.44
2023-01-12T17:21:22.596Z,99657.25
2023-01-12T17:23:49.700Z,99662.56
2023-01-12T17:26:18.249Z,99657.25
2023-01-12T17:28:47.233Z,99654.38
2023-01-12T17:31:19.073Z,99647.41
2023-01-12T17:33:46.569Z,99657.88
2023-01-12T17:36:14.332Z,99648.22
2023-01-12T17:38:41.420Z,99669.38
2023-01-12T17:41:33.016Z,99640.22
2023-01-12T17:44:03.014Z,99639.22
2023-01-12T17:46:31.106Z,99638.41
2023-01-12T17:49:00.198Z,99647.22
2023-01-12T17:51:27.989Z,99641.88
2023-01-12T17:53:59.409Z,99660.53
2023-01-12T17:56:29.047Z,99647.41
2023-01-12T17:58:56.329Z,99655.22
2023-01-12T18:01:26.244Z,99640.88
2023-01-12T18:03:53.605Z,99644.53
2023-01-12T18:06:26.614Z,99630.03
2023-01-12T18:08:56.486Z,99642.53
2023-01-12T18:11:24.356Z,99652.19
2023-01-12T18:13:51.407Z,99647.03
2023-01-12T18:16:18.588Z,99651.16
2023-01-12T18:18:46.102Z,99644.81
2023-01-12T18:21:17.414Z,99634.13
2023-01-12T18:23:44.759Z,99631.47
2023-01-12T18:26:18.436Z,99629.00
2023-01-12T18:28:45.613Z,99629.81
2023-01-12T18:31:19.791Z,99641.94
2023-01-12T18:33:53.482Z,99633.94
2023-01-12T18:36:24.054Z,99629.47
2023-01-12T18:38:52.491Z,99635.41
2023-01-12T18:41:39.401Z,99636.44
2023-01-12T18:44:06.808Z,99618.81
2023-01-12T18:47:01.843Z,99624.94
2023-01-12T18:49:34.550Z,99610.97
2023-01-12T18:52:21.535Z,99617.31
2023-01-12T18:54:51.668Z,99604.00
2023-01-12T18:57:22.292Z,99606.03
2023-01-12T18:59:53.459Z,99595.38
2023-01-12T19:02:21.099Z,99608.69
2023-01-12T19:04:52.347Z,99606.25
2023-01-12T19:07:41.559Z,99608.09
2023-01-12T19:10:09.439Z,99605.22
2023-01-12T19:12:36.385Z,99616.69
2023-01-12T19:15:21.968Z,99615.06
2023-01-12T19:17:48.951Z,99629.22
2023-01-12T19:20:17.156Z,99620.00
2023-01-12T19:23:02.821Z,99618.97
2023-01-12T19:25:48.100Z,99621.47
2023-01-12T19:28:32.751Z,99609.78
2023-01-12T19:31:10.648Z,99606.91
2023-01-12T19:33:39.194Z,99607.53
2023-01-12T19:36:10.212Z,99625.19
2023-01-12T19:38:38.670Z,99626.00
2023-01-12T19:41:14.172Z,99610.66
2023-01-12T19:43:45.114Z,99614.97
2023-01-12T19:46:14.882Z,99622.97
2023-01-12T19:48:41.902Z,99616.81
2023-01-12T19:51:11.072Z,99614.16
2023-01-12T19:53:40.444Z,99607.78
2023-01-12T19:56:12.406Z,99620.28
2023-01-12T19:58:39.930Z,99611.28
2023-01-12T20:01:08.318Z,99603.28
2023-01-12T20:03:36.350Z,99603.28
2023-01-12T20:06:07.672Z,99602.47
2023-01-12T20:08:34.722Z,99611.28
2023-01-12T20:11:04.960Z,99590.97
2023-01-12T20:13:32.967Z,99589.31
2023-01-12T20:16:07.300Z,99586.00
2023-01-12T20:18:34.361Z,99578.00
2023-01-12T20:21:03.248Z,99575.34
2023-01-12T20:23:30.176Z,99578.22
2023-01-12T20:25:58.175Z,99581.91
2023-01-12T20:28:25.896Z,99585.38
2023-01-12T20:30:52.902Z,99576.56
2023-01-12T20:33:20.118Z,99569.41
2023-01-12T20:35:48.727Z,99565.91
2023-01-12T20:38:16.807Z,99577.38
2023-01-12T20:40:45.580Z,99564.25
2023-01-12T20:43:13.234Z,99566.09
2023-01-12T20:45:41.740Z,99564.47
2023-01-12T20:48:10.792Z,99562.63
2023-01-12T20:50:45.423Z,99555.81
2023-01-12T20:53:13.707Z,99567.50
2023-01-12T20:55:48.397Z,99549.88
2023-01-12T20:58:16.452Z,99535.72
2023-01-12T21:00:44.287Z,99539.41
2023-01-12T21:03:11.392Z,99542.06
2023-01-12T21:05:42.908Z,99539.41
2023-01-12T21:08:10.931Z,99557.25
2023-01-12T21:10:40.245Z,99543.91
2023-01-12T21:13:07.432Z,99551.47
2023-01-12T21:15:34.366Z,99540.59
2023-01-12T21:18:01.355Z,99539.78
2023-01-12T21:20:28.277Z,99539.97
2023-01-12T21:22:55.375Z,99537.31
2023-01-12T21:25:25.938Z,99534.66
2023-01-12T21:27:52.976Z,99541.00
2023-01-12T21:30:20.038Z,99533.81
2023-01-12T21:32:48.537Z,99532.19
2023-01-12T21:35:15.772Z,99533.81
2023-01-12T21:37:42.716Z,99531.38
2023-01-12T21:40:10.742Z,99525.22
2023-01-12T21:42:55.972Z,99519.88
2023-01-12T21:45:23.708Z,99521.91
2023-01-12T21:47:50.624Z,99521.72
2023-01-12T21:50:17.534Z,99513.06
2023-01-12T21:52:45.190Z,99510.41
2023-01-12T21:55:13.609Z,99497.09
2023-01-12T21:57:42.439Z,99498.13
2023-01-12T22:00:10.400Z,99506.94
2023-01-12T22:02:40.463Z,99495.44
2023-01-12T22:05:07.857Z,99493.59
2023-01-12T22:07:34.845Z,99497.75
2023-01-12T22:10:19.836Z,99488.72
2023-01-12T22:13:00.372Z,99496.72
2023-01-12T22:15:30.053Z,99485.84
2023-01-12T22:17:57.099Z,99495.28
2023-01-12T22:20:24.439Z,99488.97
2023-01-12T22:22:52.778Z,99492.25
2023-01-12T22:25:20.517Z,99486.72
2023-01-12T22:27:47.525Z,99497.81
2023-01-12T22:30:18.631Z,99495.78
2023-01-12T22:32:45.621Z,99490.25
2023-01-12T22:35:13.484Z,99498.03
2023-01-12T22:37:41.275Z,99488.63
2023-01-12T22:40:11.111Z,99483.09
2023-01-12T22:42:57.081Z,99487.25
2023-01-12T22:45:24.082Z,99479.84
2023-01-12T22:47:53.627Z,99480.69
2023-01-12T22:50:21.741Z,99488.47
2023-01-12T22:52:52.964Z,99493.81
2023-01-12T22:55:21.886Z,99482.13
2023-01-12T22:57:49.310Z,99478.44
2023-01-12T23:00:17.263Z,99482.75
2023-01-12T23:02:59.884Z,99483.38
2023-01-12T23:05:47.708Z,99472.50
2023-01-12T23:08:16.603Z,99471.47
2023-01-12T23:10:44.285Z,99468.63
2023-01-12T23:13:21.251Z,99470.91
2023-01-12T23:15:58.132Z,99470.91
2023-01-12T23:18:31.638Z,99470.50
2023-01-12T23:21:21.479Z,99472.97
2023-01-12T23:23:54.333Z,99464.16
2023-01-12T23:26:32.882Z,99469.06
2023-01-12T23:29:02.945Z,99455.75
2023-01-12T23:31:33.351Z,99463.53
2023-01-12T23:34:01.492Z,99453.50
2023-01-12T23:36:30.517Z,99469.31
2023-01-12T23:39:03.174Z,99454.13
2023-01-12T23:41:33.693Z,99462.94
2023-01-12T23:44:05.616Z,99441.59
2023-01-12T23:46:39.343Z,99429.91
2023-01-12T23:49:06.586Z,99434.03
2023-01-12T23:51:33.731Z,99431.16
2023-01-12T23:54:02.231Z,99432.19
2023-01-12T23:56:32.436Z,99423.16
2023-01-12T23:58:59.511Z,99431.16
